sensor_id;sensor_type;location;lat;lon;timestamp;P1;durP1;ratioP1;P2;durP2;ratioP2
5678;SDS011;2862;52.560;13.566;2023-06-22T00:04:56;28.37;;;12.80;;
5678;SDS011;2862;52.560;13.566;2023-06-22T00:14:59;30.37;;;13.33;;
5678;SDS011;2862;52.560;13.566;2023-06-22T00:25:04;28.93;;;12.90;;
5678;SDS011;2862;52.560;13.566;2023-06-22T00:35:08;31.77;;;14.10;;
5678;SDS011;2862;52.560;13.566;2023-06-22T00:45:13;33.63;;;15.27;;
5678;SDS011;2862;52.560;13.566;2023-06-22T00:55:17;29.63;;;13.83;;
5678;SDS011;2862;52.560;13.566;2023-06-22T01:05:22;29.07;;;13.77;;
5678;SDS011;2862;52.560;13.566;2023-06-22T01:15:28;33.43;;;16.37;;
5678;SDS011;2862;52.560;13.566;2023-06-22T01:25:39;33.47;;;16.03;;
5678;SDS011;2862;52.560;13.566;2023-06-22T01:35:51;32.37;;;16.70;;
5678;SDS011;2862;52.560;13.566;2023-06-22T01:45:54;34.57;;;16.10;;
5678;SDS011;2862;52.560;13.566;2023-06-22T01:55:58;33.70;;;15.37;;
5678;SDS011;2862;52.560;13.566;2023-06-22T02:06:04;31.57;;;15.77;;
5678;SDS011;2862;52.560;13.566;2023-06-22T02:16:10;36.27;;;18.50;;
5678;SDS011;2862;52.560;13.566;2023-06-22T02:26:15;40.23;;;20.93;;
5678;SDS011;2862;52.560;13.566;2023-06-22T02:36:21;34.70;;;16.37;;
5678;SDS011;2862;52.560;13.566;2023-06-22T02:46:23;39.73;;;19.20;;
5678;SDS011;2862;52.560;13.566;2023-06-22T02:56:28;39.40;;;20.40;;
5678;SDS011;2862;52.560;13.566;2023-06-22T03:06:34;39.10;;;22.10;;
5678;SDS011;2862;52.560;13.566;2023-06-22T03:16:40;40.27;;;21.17;;
5678;SDS011;2862;52.560;13.566;2023-06-22T03:26:43;38.50;;;21.13;;
5678;SDS011;2862;52.560;13.566;2023-06-22T03:36:49;39.83;;;22.20;;
5678;SDS011;2862;52.560;13.566;2023-06-22T03:46:52;36.70;;;19.57;;
5678;SDS011;2862;52.560;13.566;2023-06-22T03:56:57;30.90;;;17.73;;
5678;SDS011;2862;52.560;13.566;2023-06-22T04:07:01;29.93;;;14.97;;
5678;SDS011;2862;52.560;13.566;2023-06-22T04:17:05;31.70;;;14.80;;
5678;SDS011;2862;52.560;13.566;2023-06-22T04:27:08;25.60;;;12.13;;
5678;SDS011;2862;52.560;13.566;2023-06-22T04:37:12;25.33;;;10.13;;
5678;SDS011;2862;52.560;13.566;2023-06-22T04:47:17;26.90;;;7.60;;
5678;SDS011;2862;52.560;13.566;2023-06-22T04:57:21;17.73;;;6.03;;
5678;SDS011;2862;52.560;13.566;2023-06-22T05:07:34;19.83;;;5.63;;
5678;SDS011;2862;52.560;13.566;2023-06-22T05:17:38;16.60;;;5.83;;
5678;SDS011;2862;52.560;13.566;2023-06-22T05:27:44;16.90;;;4.37;;
5678;SDS011;2862;52.560;13.566;2023-06-22T05:37:49;19.50;;;5.60;;
5678;SDS011;2862;52.560;13.566;2023-06-22T05:47:53;17.40;;;5.13;;
5678;SDS011;2862;52.560;13.566;2023-06-22T05:57:57;19.23;;;5.77;;
5678;SDS011;2862;52.560;13.566;2023-06-22T06:08:00;19.63;;;5.87;;
5678;SDS011;2862;52.560;13.566;2023-06-22T06:18:06;18.30;;;4.47;;
5678;SDS011;2862;52.560;13.566;2023-06-22T06:28:09;17.20;;;2.90;;
5678;SDS011;2862;52.560;13.566;2023-06-22T06:38:13;16.10;;;2.57;;
5678;SDS011;2862;52.560;13.566;2023-06-22T06:48:16;13.03;;;2.30;;
5678;SDS011;2862;52.560;13.566;2023-06-22T06:58:21;17.63;;;6.80;;
5678;SDS011;2862;52.560;13.566;2023-06-22T07:08:24;13.53;;;1.60;;
5678;SDS011;2862;52.560;13.566;2023-06-22T07:18:29;12.80;;;1.30;;
5678;SDS011;2862;52.560;13.566;2023-06-22T07:28:32;11.93;;;1.00;;
5678;SDS011;2862;52.560;13.566;2023-06-22T07:38:40;20.17;;;1.47;;
5678;SDS011;2862;52.560;13.566;2023-06-22T07:48:43;11.80;;;0.87;;
5678;SDS011;2862;52.560;13.566;2023-06-22T07:58:47;14.53;;;1.00;;
5678;SDS011;2862;52.560;13.566;2023-06-22T08:08:50;13.90;;;1.43;;
5678;SDS011;2862;52.560;13.566;2023-06-22T08:18:55;12.63;;;0.80;;
5678;SDS011;2862;52.560;13.566;2023-06-22T08:28:58;15.67;;;1.70;;
5678;SDS011;2862;52.560;13.566;2023-06-22T08:39:03;15.20;;;1.70;;
5678;SDS011;2862;52.560;13.566;2023-06-22T08:49:06;14.93;;;1.20;;
5678;SDS011;2862;52.560;13.566;2023-06-22T08:59:11;28.13;;;2.30;;
5678;SDS011;2862;52.560;13.566;2023-06-22T09:09:15;17.20;;;2.00;;
5678;SDS011;2862;52.560;13.566;2023-06-22T09:19:20;14.13;;;1.53;;
5678;SDS011;2862;52.560;13.566;2023-06-22T09:29:22;14.77;;;1.70;;
5678;SDS011;2862;52.560;13.566;2023-06-22T09:39:27;16.93;;;2.20;;
5678;SDS011;2862;52.560;13.566;2023-06-22T09:49:30;20.83;;;1.90;;
5678;SDS011;2862;52.560;13.566;2023-06-22T09:59:48;13.23;;;0.90;;
5678;SDS011;2862;52.560;13.566;2023-06-22T10:09:51;19.10;;;1.57;;
5678;SDS011;2862;52.560;13.566;2023-06-22T10:19:55;14.77;;;1.47;;
5678;SDS011;2862;52.560;13.566;2023-06-22T10:29:58;13.43;;;1.33;;
5678;SDS011;2862;52.560;13.566;2023-06-22T10:40:04;13.57;;;1.40;;
5678;SDS011;2862;52.560;13.566;2023-06-22T10:50:09;14.00;;;1.60;;
5678;SDS011;2862;52.560;13.566;2023-06-22T11:00:14;15.13;;;1.57;;
5678;SDS011;2862;52.560;13.566;2023-06-22T11:10:18;14.87;;;1.90;;
5678;SDS011;2862;52.560;13.566;2023-06-22T11:20:22;18.27;;;4.47;;
5678;SDS011;2862;52.560;13.566;2023-06-22T11:30:25;15.63;;;1.90;;
5678;SDS011;2862;52.560;13.566;2023-06-22T11:40:29;15.30;;;2.47;;
5678;SDS011;2862;52.560;13.566;2023-06-22T11:50:32;15.63;;;2.33;;
5678;SDS011;2862;52.560;13.566;2023-06-22T12:00:39;16.63;;;2.30;;
5678;SDS011;2862;52.560;13.566;2023-06-22T12:10:50;14.47;;;1.53;;
5678;SDS011;2862;52.560;13.566;2023-06-22T12:20:56;14.40;;;1.93;;
5678;SDS011;2862;52.560;13.566;2023-06-22T12:31:00;14.80;;;2.73;;
5678;SDS011;2862;52.560;13.566;2023-06-22T12:41:04;15.87;;;3.07;;
5678;SDS011;2862;52.560;13.566;2023-06-22T12:51:07;15.10;;;2.73;;
5678;SDS011;2862;52.560;13.566;2023-06-22T13:01:12;16.50;;;2.93;;
5678;SDS011;2862;52.560;13.566;2023-06-22T13:11:16;17.50;;;3.00;;
5678;SDS011;2862;52.560;13.566;2023-06-22T13:21:21;16.97;;;2.87;;
5678;SDS011;2862;52.560;13.566;2023-06-22T13:31:24;16.47;;;3.27;;
5678;SDS011;2862;52.560;13.566;2023-06-22T13:41:28;15.60;;;2.97;;
5678;SDS011;2862;52.560;13.566;2023-06-22T13:51:32;16.67;;;4.00;;
5678;SDS011;2862;52.560;13.566;2023-06-22T14:01:36;16.20;;;4.00;;
5678;SDS011;2862;52.560;13.566;2023-06-22T14:11:40;17.93;;;3.70;;
5678;SDS011;2862;52.560;13.566;2023-06-22T14:21:45;16.53;;;4.03;;
5678;SDS011;2862;52.560;13.566;2023-06-22T14:31:48;19.87;;;3.50;;
5678;SDS011;2862;52.560;13.566;2023-06-22T14:41:53;19.87;;;3.40;;
5678;SDS011;2862;52.560;13.566;2023-06-22T14:51:56;20.50;;;4.63;;
5678;SDS011;2862;52.560;13.566;2023-06-22T15:02:00;16.13;;;3.67;;
5678;SDS011;2862;52.560;13.566;2023-06-22T15:12:04;17.73;;;3.73;;
5678;SDS011;2862;52.560;13.566;2023-06-22T15:22:10;15.33;;;3.33;;
5678;SDS011;2862;52.560;13.566;2023-06-22T15:32:14;16.07;;;3.50;;
5678;SDS011;2862;52.560;13.566;2023-06-22T15:42:19;15.27;;;3.70;;
5678;SDS011;2862;52.560;13.566;2023-06-22T15:52:22;15.73;;;3.40;;
5678;SDS011;2862;52.560;13.566;2023-06-22T16:02:26;18.83;;;4.27;;
5678;SDS011;2862;52.560;13.566;2023-06-22T16:12:30;18.33;;;4.77;;
5678;SDS011;2862;52.560;13.566;2023-06-22T16:22:34;17.67;;;3.83;;
5678;SDS011;2862;52.560;13.566;2023-06-22T16:32:37;17.20;;;4.03;;
5678;SDS011;2862;52.560;13.566;2023-06-22T16:42:42;18.33;;;3.80;;
5678;SDS011;2862;52.560;13.566;2023-06-22T16:52:47;16.77;;;3.60;;
5678;SDS011;2862;52.560;13.566;2023-06-22T17:02:52;18.97;;;4.23;;
5678;SDS011;2862;52.560;13.566;2023-06-22T17:12:58;17.73;;;4.00;;
5678;SDS011;2862;52.560;13.566;2023-06-22T17:23:03;19.90;;;4.83;;
5678;SDS011;2862;52.560;13.566;2023-06-22T17:33:08;15.80;;;3.13;;
5678;SDS011;2862;52.560;13.566;2023-06-22T17:43:13;17.33;;;3.60;;
5678;SDS011;2862;52.560;13.566;2023-06-22T17:53:16;21.63;;;4.17;;
5678;SDS011;2862;52.560;13.566;2023-06-22T18:03:24;21.50;;;3.80;;
5678;SDS011;2862;52.560;13.566;2023-06-22T18:13:27;18.53;;;4.60;;
5678;SDS011;2862;52.560;13.566;2023-06-22T18:23:32;18.00;;;4.70;;
5678;SDS011;2862;52.560;13.566;2023-06-22T18:33:37;16.40;;;3.70;;
5678;SDS011;2862;52.560;13.566;2023-06-22T18:43:43;16.40;;;4.10;;
5678;SDS011;2862;52.560;13.566;2023-06-22T18:53:52;18.10;;;4.50;;
5678;SDS011;2862;52.560;13.566;2023-06-22T19:04:12;18.43;;;4.07;;
5678;SDS011;2862;52.560;13.566;2023-06-22T19:14:18;18.90;;;4.60;;
5678;SDS011;2862;52.560;13.566;2023-06-22T19:24:29;19.40;;;4.67;;
5678;SDS011;2862;52.560;13.566;2023-06-22T19:34:34;24.40;;;4.60;;
5678;SDS011;2862;52.560;13.566;2023-06-22T19:44:39;18.87;;;5.03;;
5678;SDS011;2862;52.560;13.566;2023-06-22T19:54:42;18.63;;;4.57;;
5678;SDS011;2862;52.560;13.566;2023-06-22T20:04:47;20.10;;;5.30;;
5678;SDS011;2862;52.560;13.566;2023-06-22T20:14:51;17.80;;;4.50;;
5678;SDS011;2862;52.560;13.566;2023-06-22T20:24:55;19.77;;;4.63;;
5678;SDS011;2862;52.560;13.566;2023-06-22T20:35:01;17.67;;;3.93;;
5678;SDS011;2862;52.560;13.566;2023-06-22T20:45:07;21.60;;;4.27;;
5678;SDS011;2862;52.560;13.566;2023-06-22T20:55:11;20.67;;;5.33;;
5678;SDS011;2862;52.560;13.566;2023-06-22T21:05:16;19.20;;;5.20;;
5678;SDS011;2862;52.560;13.566;2023-06-22T21:15:19;24.07;;;8.60;;
5678;SDS011;2862;52.560;13.566;2023-06-22T21:25:23;28.37;;;9.93;;
5678;SDS011;2862;52.560;13.566;2023-06-22T21:35:26;27.47;;;10.73;;
5678;SDS011;2862;52.560;13.566;2023-06-22T21:45:31;32.83;;;11.80;;
5678;SDS011;2862;52.560;13.566;2023-06-22T21:55:34;37.40;;;14.53;;
5678;SDS011;2862;52.560;13.566;2023-06-22T22:05:39;31.10;;;12.60;;
5678;SDS011;2862;52.560;13.566;2023-06-22T22:15:42;27.83;;;12.97;;
5678;SDS011;2862;52.560;13.566;2023-06-22T22:25:46;31.97;;;15.10;;
5678;SDS011;2862;52.560;13.566;2023-06-22T22:35:49;31.37;;;14.17;;
5678;SDS011;2862;52.560;13.566;2023-06-22T22:45:54;31.93;;;16.60;;
5678;SDS011;2862;52.560;13.566;2023-06-22T22:55:57;32.87;;;13.00;;
5678;SDS011;2862;52.560;13.566;2023-06-22T23:06:01;27.33;;;12.27;;
5678;SDS011;2862;52.560;13.566;2023-06-22T23:16:04;28.33;;;11.63;;
5678;SDS011;2862;52.560;13.566;2023-06-22T23:26:09;26.53;;;9.17;;
5678;SDS011;2862;52.560;13.566;2023-06-22T23:36:12;30.13;;;11.00;;
5678;SDS011;2862;52.560;13.566;2023-06-22T23:46:17;28.10;;;8.40;;
5678;SDS011;2862;52.560;13.566;2023-06-22T23:56:21;26.47;;;6.83;;
